createdAt,value
2022-10-30T00:00:19.465Z,73.14
2022-10-30T00:01:19.499Z,73.33
2022-10-30T00:02:19.580Z,73.24
2022-10-30T00:03:19.587Z,73.24
2022-10-30T00:04:19.461Z,73.43
2022-10-30T00:05:19.459Z,73.24
2022-10-30T00:06:19.463Z,73.24
2022-10-30T00:07:19.453Z,73.43
2022-10-30T00:08:19.459Z,73.43
2022-10-30T00:09:19.476Z,73.14
2022-10-30T00:10:19.459Z,73.05
2022-10-30T00:11:19.458Z,73.24
2022-10-30T00:12:19.458Z,73.24
2022-10-30T00:13:19.458Z,73.05
2022-10-30T00:14:19.457Z,73.43
2022-10-30T00:15:19.457Z,73.24
2022-10-30T00:16:19.446Z,73.33
2022-10-30T00:17:19.455Z,73.14
2022-10-30T00:18:19.453Z,73.43
2022-10-30T00:19:19.451Z,73.24
2022-10-30T00:20:19.443Z,73.24
2022-10-30T00:21:19.447Z,73.14
2022-10-30T00:22:19.442Z,73.05
2022-10-30T00:23:19.450Z,73.14
2022-10-30T00:24:19.450Z,73.14
2022-10-30T00:25:19.461Z,73.14
2022-10-30T00:26:19.443Z,73.05
2022-10-30T00:27:19.437Z,73.05
2022-10-30T00:28:19.444Z,73.24
2022-10-30T00:29:19.444Z,73.24
2022-10-30T00:30:19.446Z,73.24
2022-10-30T00:31:19.438Z,73.14
2022-10-30T00:32:19.438Z,73.14
2022-10-30T00:33:19.436Z,73.33
2022-10-30T00:34:19.441Z,73.24
2022-10-30T00:35:19.439Z,73.24
2022-10-30T00:36:19.448Z,73.33
2022-10-30T00:37:19.438Z,73.24
2022-10-30T00:38:19.439Z,73.24
2022-10-30T00:39:19.428Z,73.14
2022-10-30T00:40:19.429Z,73.05
2022-10-30T00:41:19.444Z,73.14
2022-10-30T00:42:22.674Z,73.33
2022-10-30T00:43:19.438Z,73.24
2022-10-30T00:44:20.850Z,73.14
2022-10-30T00:45:19.420Z,73.14
2022-10-30T00:46:19.431Z,73.24
2022-10-30T00:47:19.429Z,73.33
2022-10-30T00:48:19.422Z,73.14
2022-10-30T00:49:19.424Z,73.14
2022-10-30T00:50:19.472Z,73.33
2022-10-30T00:51:19.428Z,73.62
2022-10-30T00:52:19.424Z,73.24
2022-10-30T00:53:19.413Z,73.53
2022-10-30T00:54:19.415Z,73.24
2022-10-30T00:55:19.463Z,73.62
2022-10-30T00:56:19.419Z,73.33
2022-10-30T00:57:19.442Z,73.33
2022-10-30T00:58:19.417Z,73.33
2022-10-30T00:59:19.422Z,73.33
2022-10-30T01:00:19.413Z,73.33
2022-10-30T01:01:19.565Z,73.33
2022-10-30T01:02:19.525Z,73.43
2022-10-30T01:03:19.407Z,73.33
2022-10-30T01:04:19.407Z,73.33
2022-10-30T01:05:19.404Z,73.43
2022-10-30T01:06:19.428Z,73.33
2022-10-30T01:07:19.407Z,73.33
2022-10-30T01:08:19.462Z,73.43
2022-10-30T01:09:19.455Z,73.43
2022-10-30T01:10:19.411Z,73.62
2022-10-30T01:11:19.406Z,73.43
2022-10-30T01:12:19.400Z,73.24
2022-10-30T01:13:19.417Z,73.33
2022-10-30T01:14:19.398Z,73.43
2022-10-30T01:15:19.415Z,73.62
2022-10-30T01:16:19.404Z,73.43
2022-10-30T01:17:19.412Z,73.53
2022-10-30T01:18:19.395Z,73.43
2022-10-30T01:19:19.397Z,73.43
2022-10-30T01:20:19.395Z,73.62
2022-10-30T01:21:19.390Z,73.33
2022-10-30T01:22:19.405Z,73.53
2022-10-30T01:23:19.398Z,73.72
2022-10-30T01:24:19.387Z,73.62
2022-10-30T01:25:19.384Z,73.62
2022-10-30T01:26:19.384Z,73.62
2022-10-30T01:27:19.385Z,73.53
2022-10-30T01:28:19.397Z,73.53
2022-10-30T01:29:19.401Z,73.53
2022-10-30T01:30:19.387Z,73.53
2022-10-30T01:31:19.380Z,73.53
2022-10-30T01:32:19.387Z,73.53
2022-10-30T01:33:19.378Z,73.43
2022-10-30T01:34:19.388Z,73.43
2022-10-30T01:35:19.393Z,73.14
2022-10-30T01:36:19.384Z,73.14
2022-10-30T01:37:19.383Z,73.14
2022-10-30T01:38:19.377Z,73.53
2022-10-30T01:39:19.384Z,73.62
2022-10-30T01:40:19.391Z,73.33
2022-10-30T01:41:19.383Z,73.62
2022-10-30T01:42:19.373Z,73.62
2022-10-30T01:43:19.376Z,73.24
2022-10-30T01:44:19.377Z,73.14
2022-10-30T01:45:19.393Z,73.14
2022-10-30T01:46:19.372Z,73.14
2022-10-30T01:47:19.374Z,73.14
2022-10-30T01:48:19.384Z,73.62
2022-10-30T01:49:19.465Z,73.24
2022-10-30T01:50:19.376Z,73.33
2022-10-30T01:51:19.375Z,73.24
2022-10-30T01:52:19.365Z,73.33
2022-10-30T01:53:19.363Z,73.24
2022-10-30T01:54:19.371Z,73.33
2022-10-30T01:55:19.373Z,73.33
2022-10-30T01:56:19.424Z,73.33
2022-10-30T01:57:19.370Z,73.33
2022-10-30T01:58:19.384Z,73.33
2022-10-30T01:59:19.357Z,73.33
2022-10-30T02:00:19.359Z,73.33
2022-10-30T02:01:19.517Z,73.62
2022-10-30T02:02:19.503Z,73.33
2022-10-30T02:03:19.369Z,73.62
2022-10-30T02:04:19.367Z,73.24
2022-10-30T02:05:19.353Z,73.33
2022-10-30T02:06:19.357Z,73.33
2022-10-30T02:07:19.352Z,73.24
2022-10-30T02:08:19.368Z,73.62
2022-10-30T02:09:19.358Z,73.43
2022-10-30T02:10:19.350Z,73.33
2022-10-30T02:11:19.346Z,73.14
2022-10-30T02:12:19.359Z,73.33
2022-10-30T02:13:19.350Z,73.33
2022-10-30T02:14:19.354Z,73.43
2022-10-30T02:15:19.356Z,73.14
2022-10-30T02:16:19.350Z,73.33
2022-10-30T02:17:19.361Z,73.33
2022-10-30T02:18:19.350Z,73.24
2022-10-30T02:19:19.340Z,73.33
2022-10-30T02:20:19.341Z,73.14
2022-10-30T02:21:19.342Z,73.33
2022-10-30T02:22:19.408Z,73.14
2022-10-30T02:23:19.343Z,73.33
2022-10-30T02:24:19.344Z,73.14
2022-10-30T02:25:19.334Z,73.53
2022-10-30T02:26:19.341Z,73.33
2022-10-30T02:27:19.340Z,73.33
2022-10-30T02:28:19.343Z,73.33
2022-10-30T02:29:19.335Z,73.24
2022-10-30T02:30:19.341Z,73.14
2022-10-30T02:31:19.338Z,73.43
2022-10-30T02:32:19.339Z,73.24
2022-10-30T02:33:19.366Z,73.24
2022-10-30T02:34:19.330Z,73.24
2022-10-30T02:35:19.330Z,73.43
2022-10-30T02:36:19.340Z,73.24
2022-10-30T02:37:19.331Z,73.14
2022-10-30T02:38:19.322Z,73.33
2022-10-30T02:39:19.346Z,73.43
2022-10-30T02:40:19.331Z,73.43
2022-10-30T02:41:19.322Z,73.24
2022-10-30T02:42:19.322Z,73.53
2022-10-30T02:43:19.322Z,73.43
2022-10-30T02:44:19.321Z,73.24
2022-10-30T02:45:19.317Z,73.24
2022-10-30T02:46:19.327Z,73.33
2022-10-30T02:47:19.320Z,73.33
2022-10-30T02:48:19.332Z,73.24
2022-10-30T02:49:19.346Z,73.24
2022-10-30T02:50:19.318Z,73.43
2022-10-30T02:51:19.321Z,73.43
2022-10-30T02:52:19.310Z,73.24
2022-10-30T02:53:19.313Z,73.72
2022-10-30T02:54:19.320Z,73.33
2022-10-30T02:55:19.309Z,73.33
2022-10-30T02:56:19.317Z,73.33
2022-10-30T02:57:19.310Z,73.33
2022-10-30T02:58:19.310Z,73.24
2022-10-30T02:59:19.306Z,73.33
2022-10-30T03:00:19.314Z,73.24
2022-10-30T03:01:19.478Z,73.33
2022-10-30T03:02:19.377Z,73.33
2022-10-30T03:03:23.034Z,73.24
2022-10-30T03:04:19.314Z,73.33
2022-10-30T03:05:19.324Z,73.05
2022-10-30T03:06:19.299Z,73.43
2022-10-30T03:07:19.305Z,73.14
2022-10-30T03:08:19.296Z,73.82
2022-10-30T03:09:19.309Z,73.53
2022-10-30T03:10:19.304Z,73.53
2022-10-30T03:11:19.308Z,73.53
2022-10-30T03:12:19.308Z,73.62
2022-10-30T03:13:19.301Z,73.43
2022-10-30T03:14:19.301Z,73.43
2022-10-30T03:15:19.299Z,73.43
2022-10-30T03:16:19.300Z,73.53
2022-10-30T03:17:19.288Z,73.43
2022-10-30T03:18:19.296Z,73.33
2022-10-30T03:19:19.296Z,73.62
2022-10-30T03:20:19.294Z,73.53
2022-10-30T03:21:19.324Z,73.62
2022-10-30T03:22:19.284Z,73.62
2022-10-30T03:23:19.290Z,73.53
2022-10-30T03:24:19.284Z,73.43
2022-10-30T03:25:19.291Z,73.62
2022-10-30T03:26:19.287Z,73.43
2022-10-30T03:27:19.288Z,73.43
2022-10-30T03:28:19.283Z,73.53
2022-10-30T03:29:19.288Z,73.43
2022-10-30T03:30:19.281Z,73.53
2022-10-30T03:31:19.279Z,73.72
2022-10-30T03:32:19.408Z,73.62
2022-10-30T03:33:19.275Z,73.43
2022-10-30T03:34:19.272Z,73.43
2022-10-30T03:35:19.288Z,73.43
2022-10-30T03:36:19.274Z,73.72
2022-10-30T03:37:19.302Z,73.62
2022-10-30T03:38:19.272Z,73.53
2022-10-30T03:39:19.276Z,73.72
2022-10-30T03:40:19.280Z,73.62
2022-10-30T03:41:19.272Z,73.24
2022-10-30T03:42:19.276Z,73.62
2022-10-30T03:43:19.268Z,73.62
2022-10-30T03:44:19.273Z,73.72
2022-10-30T03:45:19.269Z,73.43
2022-10-30T03:46:19.267Z,73.82
2022-10-30T03:47:19.270Z,73.72
2022-10-30T03:48:19.275Z,73.72
2022-10-30T03:49:19.271Z,73.91
2022-10-30T03:50:19.268Z,73.91
2022-10-30T03:51:19.268Z,73.91
2022-10-30T03:52:19.264Z,73.72
2022-10-30T03:53:19.281Z,73.91
2022-10-30T03:54:19.268Z,73.82
2022-10-30T03:55:19.263Z,73.72
2022-10-30T03:56:19.261Z,73.91
2022-10-30T03:57:19.258Z,73.91
2022-10-30T03:58:19.258Z,73.72
2022-10-30T03:59:19.252Z,73.72
2022-10-30T04:00:19.261Z,74.01
2022-10-30T04:01:19.406Z,74.01
2022-10-30T04:03:19.259Z,73.91
2022-10-30T04:04:19.253Z,73.91
2022-10-30T04:05:19.246Z,73.53
2022-10-30T04:06:19.248Z,73.72
2022-10-30T04:07:19.256Z,73.72
2022-10-30T04:08:19.261Z,73.82
2022-10-30T04:09:19.277Z,73.53
2022-10-30T04:10:22.785Z,73.82
2022-10-30T04:11:19.332Z,73.82
2022-10-30T04:12:19.247Z,73.62
2022-10-30T04:13:19.259Z,73.82
2022-10-30T04:14:19.245Z,73.72
2022-10-30T04:15:19.265Z,74.10
2022-10-30T04:16:19.251Z,73.62
2022-10-30T04:17:19.255Z,73.53
2022-10-30T04:18:19.237Z,74.10
2022-10-30T04:19:19.247Z,73.82
2022-10-30T04:20:19.250Z,73.82
2022-10-30T04:21:19.246Z,73.43
2022-10-30T04:22:19.236Z,73.82
2022-10-30T04:23:19.257Z,73.53
2022-10-30T04:24:19.246Z,73.62
2022-10-30T04:25:19.268Z,73.91
2022-10-30T04:26:19.238Z,73.62
2022-10-30T04:27:19.229Z,73.72
2022-10-30T04:28:19.237Z,73.72
2022-10-30T04:29:19.225Z,73.72
2022-10-30T04:30:19.248Z,73.72
2022-10-30T04:31:19.239Z,73.72
2022-10-30T04:32:19.222Z,73.62
2022-10-30T04:33:19.224Z,73.72
2022-10-30T04:34:19.221Z,73.72
2022-10-30T04:35:19.228Z,73.62
2022-10-30T04:36:19.225Z,73.72
2022-10-30T04:37:19.227Z,73.62
2022-10-30T04:38:19.215Z,73.62
2022-10-30T04:39:19.234Z,73.62
2022-10-30T04:40:19.211Z,73.62
2022-10-30T04:41:19.239Z,73.62
2022-10-30T04:42:19.213Z,73.62
2022-10-30T04:43:19.220Z,73.62
2022-10-30T04:44:19.219Z,73.82
2022-10-30T04:45:19.210Z,73.91
2022-10-30T04:46:19.213Z,73.91
2022-10-30T04:47:19.247Z,73.72
2022-10-30T04:48:19.217Z,73.82
2022-10-30T04:49:19.205Z,73.82
2022-10-30T04:50:19.216Z,73.82
2022-10-30T04:51:19.207Z,73.82
2022-10-30T04:52:19.208Z,73.39
2022-10-30T04:53:19.221Z,73.91
2022-10-30T04:54:19.201Z,73.82
2022-10-30T04:55:19.198Z,73.91
2022-10-30T04:56:19.194Z,73.43
2022-10-30T04:57:19.224Z,73.43
2022-10-30T04:58:19.197Z,73.91
2022-10-30T04:59:19.207Z,73.72
2022-10-30T05:00:19.191Z,73.43
2022-10-30T05:01:19.312Z,73.82
2022-10-30T05:02:19.385Z,73.91
2022-10-30T05:03:22.446Z,73.43
2022-10-30T05:04:19.190Z,73.91
2022-10-30T05:05:19.188Z,73.53
2022-10-30T05:06:19.185Z,73.62
2022-10-30T05:07:19.196Z,73.62
2022-10-30T05:08:19.181Z,73.62
2022-10-30T05:09:19.196Z,73.58
2022-10-30T05:10:19.186Z,73.58
2022-10-30T05:11:19.192Z,73.62
2022-10-30T05:12:19.192Z,73.62
2022-10-30T05:13:19.207Z,73.78
2022-10-30T05:14:19.191Z,73.49
2022-10-30T05:15:19.183Z,73.72
2022-10-30T05:16:19.179Z,73.82
2022-10-30T05:17:19.228Z,73.82
2022-10-30T05:18:19.182Z,73.39
2022-10-30T05:19:19.173Z,73.39
2022-10-30T05:20:19.307Z,73.91
2022-10-30T05:21:19.179Z,73.43
2022-10-30T05:22:19.194Z,73.91
2022-10-30T05:23:19.177Z,73.49
2022-10-30T05:24:19.173Z,73.62
2022-10-30T05:25:19.178Z,73.53
2022-10-30T05:26:19.172Z,73.62
2022-10-30T05:27:19.172Z,73.62
2022-10-30T05:28:19.161Z,73.62
2022-10-30T05:29:19.186Z,73.39
2022-10-30T05:30:19.175Z,73.43
2022-10-30T05:31:19.165Z,73.88
2022-10-30T05:32:19.176Z,73.68
2022-10-30T05:33:19.175Z,73.88
2022-10-30T05:34:19.156Z,73.78
2022-10-30T05:35:19.158Z,73.78
2022-10-30T05:36:19.154Z,73.68
2022-10-30T05:37:19.154Z,73.72
2022-10-30T05:38:19.167Z,73.78
2022-10-30T05:39:19.168Z,73.58
2022-10-30T05:40:19.154Z,73.68
2022-10-30T05:41:19.157Z,73.72
2022-10-30T05:42:19.153Z,73.58
2022-10-30T05:43:19.153Z,73.78
2022-10-30T05:44:29.153Z,73.72
2022-10-30T05:45:19.196Z,73.78
2022-10-30T05:46:19.168Z,73.78
2022-10-30T05:47:19.151Z,73.91
2022-10-30T05:48:19.144Z,73.78
2022-10-30T05:49:19.148Z,73.68
2022-10-30T05:50:19.156Z,73.82
2022-10-30T05:51:19.146Z,73.78
2022-10-30T05:52:19.144Z,73.78
2022-10-30T05:53:19.139Z,73.91
2022-10-30T05:54:19.144Z,73.78
2022-10-30T05:55:19.139Z,73.78
2022-10-30T05:56:19.137Z,73.68
2022-10-30T05:57:19.147Z,73.78
2022-10-30T05:58:19.135Z,73.58
2022-10-30T05:59:19.151Z,73.68
2022-10-30T06:00:19.134Z,73.68
2022-10-30T06:01:19.339Z,73.68
2022-10-30T06:02:19.210Z,73.78
2022-10-30T06:03:19.134Z,73.78
2022-10-30T06:04:19.134Z,73.78
2022-10-30T06:05:19.135Z,73.68
2022-10-30T06:06:19.133Z,73.68
2022-10-30T06:07:19.128Z,73.88
2022-10-30T06:08:19.128Z,73.78
2022-10-30T06:09:19.123Z,73.78
2022-10-30T06:10:19.129Z,73.78
2022-10-30T06:11:19.128Z,73.88
2022-10-30T06:12:19.134Z,73.68
2022-10-30T06:13:19.122Z,73.78
2022-10-30T06:14:19.124Z,73.68
2022-10-30T06:15:19.123Z,73.58
2022-10-30T06:16:19.165Z,73.58
2022-10-30T06:17:19.141Z,73.78
2022-10-30T06:18:19.116Z,73.68
2022-10-30T06:19:19.242Z,73.78
2022-10-30T06:20:19.129Z,73.68
2022-10-30T06:21:19.118Z,73.68
2022-10-30T06:22:19.113Z,73.68
2022-10-30T06:23:19.115Z,73.68
2022-10-30T06:24:19.121Z,73.68
2022-10-30T06:25:19.121Z,73.68
2022-10-30T06:26:19.106Z,73.78
2022-10-30T06:27:19.106Z,73.58
2022-10-30T06:28:19.109Z,73.78
2022-10-30T06:29:19.102Z,73.78
2022-10-30T06:30:19.111Z,73.68
2022-10-30T06:32:19.108Z,73.78
2022-10-30T06:33:19.120Z,73.58
2022-10-30T06:34:19.093Z,73.58
2022-10-30T06:35:19.095Z,73.58
2022-10-30T06:36:19.106Z,73.49
2022-10-30T06:37:19.203Z,73.78
2022-10-30T06:38:19.113Z,74.07
2022-10-30T06:39:19.096Z,73.78
2022-10-30T06:40:19.089Z,73.58
2022-10-30T06:41:19.096Z,73.58
2022-10-30T06:42:19.096Z,73.78
2022-10-30T06:43:19.083Z,73.58
2022-10-30T06:44:19.097Z,73.58
2022-10-30T06:45:19.084Z,73.88
2022-10-30T06:46:19.081Z,73.68
2022-10-30T06:47:19.100Z,73.88
2022-10-30T06:48:19.088Z,73.58
2022-10-30T06:49:19.111Z,73.58
2022-10-30T06:50:19.094Z,73.78
2022-10-30T06:51:19.088Z,73.58
2022-10-30T06:52:19.089Z,73.78
2022-10-30T06:53:19.089Z,73.58
2022-10-30T06:54:19.073Z,73.68
2022-10-30T06:55:19.080Z,73.49
2022-10-30T06:56:19.087Z,73.58
2022-10-30T06:57:19.073Z,73.78
2022-10-30T06:58:19.070Z,73.78
2022-10-30T06:59:19.068Z,73.78
2022-10-30T07:00:19.075Z,73.68
2022-10-30T07:01:19.115Z,73.68
2022-10-30T07:02:19.191Z,73.49
2022-10-30T07:03:19.073Z,73.78
2022-10-30T07:04:19.073Z,73.78
2022-10-30T07:05:19.101Z,73.78
2022-10-30T07:06:19.072Z,73.78
2022-10-30T07:07:19.058Z,74.07
2022-10-30T07:08:19.064Z,73.78
2022-10-30T07:09:19.063Z,73.88
2022-10-30T07:10:19.073Z,73.78
2022-10-30T07:11:19.055Z,73.78
2022-10-30T07:12:19.060Z,73.78
2022-10-30T07:13:19.061Z,73.68
2022-10-30T07:14:19.065Z,73.88
2022-10-30T07:15:19.056Z,73.68
2022-10-30T07:16:19.066Z,73.68
2022-10-30T07:17:19.060Z,73.88
2022-10-30T07:18:19.096Z,73.78
2022-10-30T07:19:19.045Z,73.68
2022-10-30T07:20:19.046Z,73.68
2022-10-30T07:21:19.075Z,73.68
2022-10-30T07:22:19.055Z,73.68
2022-10-30T07:23:19.067Z,73.88
2022-10-30T07:24:19.047Z,73.68
2022-10-30T07:25:19.038Z,73.49
2022-10-30T07:26:19.047Z,73.68
2022-10-30T07:27:19.043Z,73.68
2022-10-30T07:28:19.040Z,73.68
2022-10-30T07:29:19.035Z,73.78
2022-10-30T07:30:19.086Z,73.68
2022-10-30T07:31:28.926Z,73.68
2022-10-30T07:32:19.044Z,73.68
2022-10-30T07:33:19.031Z,73.68
2022-10-30T07:34:19.029Z,73.68
2022-10-30T07:35:19.044Z,73.39
2022-10-30T07:36:19.045Z,73.68
2022-10-30T07:37:19.049Z,73.68
2022-10-30T07:38:19.028Z,73.68
2022-10-30T07:39:19.027Z,73.49
2022-10-30T07:40:19.037Z,73.68
2022-10-30T07:41:19.040Z,73.78
2022-10-30T07:42:19.043Z,73.68
2022-10-30T07:43:19.022Z,73.88
2022-10-30T07:44:19.025Z,73.68
2022-10-30T07:45:21.565Z,73.68
2022-10-30T07:46:19.030Z,73.68
2022-10-30T07:47:19.018Z,73.88
2022-10-30T07:48:19.029Z,73.88
2022-10-30T07:49:19.025Z,73.39
2022-10-30T07:50:19.020Z,73.68
2022-10-30T07:51:19.019Z,73.88
2022-10-30T07:52:19.022Z,73.68
2022-10-30T07:53:19.063Z,73.88
2022-10-30T07:54:19.017Z,73.78
2022-10-30T07:55:19.015Z,73.68
2022-10-30T07:56:19.005Z,73.88
2022-10-30T07:57:19.008Z,73.78
2022-10-30T07:58:19.011Z,73.88
2022-10-30T07:59:19.008Z,73.68
2022-10-30T08:00:19.004Z,73.68
2022-10-30T08:01:19.190Z,73.88
2022-10-30T08:02:19.167Z,73.78
2022-10-30T08:03:18.998Z,73.68
2022-10-30T08:04:19.019Z,73.68
2022-10-30T08:05:19.007Z,73.88
2022-10-30T08:06:21.595Z,73.88
2022-10-30T08:07:19.002Z,73.68
2022-10-30T08:08:19.005Z,73.88
2022-10-30T08:09:19.016Z,73.78
2022-10-30T08:10:19.005Z,73.78
2022-10-30T08:11:18.997Z,73.88
2022-10-30T08:12:18.993Z,73.68
2022-10-30T08:13:18.997Z,73.88
2022-10-30T08:14:18.987Z,73.88
2022-10-30T08:15:18.995Z,73.97
2022-10-30T08:16:18.983Z,73.97
2022-10-30T08:17:18.996Z,73.88
2022-10-30T08:18:18.995Z,73.88
2022-10-30T08:19:18.991Z,73.88
2022-10-30T08:20:18.993Z,73.88
2022-10-30T08:21:18.981Z,73.88
2022-10-30T08:22:18.979Z,73.68
2022-10-30T08:23:18.983Z,73.68
2022-10-30T08:24:18.990Z,73.88
2022-10-30T08:25:19.015Z,74.07
2022-10-30T08:26:19.010Z,73.88
2022-10-30T08:27:18.997Z,74.07
2022-10-30T08:28:19.003Z,73.88
2022-10-30T08:29:18.976Z,73.88
2022-10-30T08:30:18.977Z,73.68
2022-10-30T08:31:18.989Z,73.88
2022-10-30T08:32:18.995Z,73.49
2022-10-30T08:33:18.970Z,73.78
2022-10-30T08:34:18.975Z,73.39
2022-10-30T08:35:20.248Z,73.68
2022-10-30T08:36:18.974Z,73.68
2022-10-30T08:37:18.988Z,73.68
2022-10-30T08:38:18.972Z,73.49
2022-10-30T08:39:18.968Z,73.49
2022-10-30T08:40:18.975Z,73.58
2022-10-30T08:41:18.977Z,73.58
2022-10-30T08:42:18.963Z,73.62
2022-10-30T08:43:18.961Z,73.78
2022-10-30T08:44:18.962Z,73.14
2022-10-30T08:45:18.962Z,73.43
2022-10-30T08:46:18.956Z,73.24
2022-10-30T08:47:18.959Z,73.14
2022-10-30T08:48:18.977Z,73.33
2022-10-30T08:49:18.961Z,73.24
2022-10-30T08:50:19.050Z,73.24
2022-10-30T08:51:18.966Z,73.33
2022-10-30T08:52:18.962Z,73.24
2022-10-30T08:53:18.957Z,73.14
2022-10-30T08:54:18.968Z,73.24
2022-10-30T08:55:18.988Z,73.33
2022-10-30T08:56:18.967Z,73.33
2022-10-30T08:57:18.972Z,73.43
2022-10-30T08:58:18.951Z,73.14
2022-10-30T08:59:21.338Z,73.33
2022-10-30T09:00:18.959Z,73.43
2022-10-30T09:01:19.123Z,73.43
2022-10-30T09:02:19.138Z,73.62
2022-10-30T09:03:18.945Z,73.33
2022-10-30T09:04:18.952Z,73.62
2022-10-30T09:05:18.944Z,73.91
2022-10-30T09:06:18.943Z,74.10
2022-10-30T09:07:18.939Z,74.10
2022-10-30T09:08:18.946Z,74.07
2022-10-30T09:09:18.937Z,74.45
2022-10-30T09:10:18.941Z,74.16
2022-10-30T09:11:18.937Z,74.61
2022-10-30T09:12:18.944Z,74.71
2022-10-30T09:13:18.953Z,75.09
2022-10-30T09:14:18.938Z,74.90
2022-10-30T09:15:18.955Z,74.90
2022-10-30T09:16:18.929Z,74.80
2022-10-30T09:17:18.941Z,74.61
2022-10-30T09:18:18.936Z,74.51
2022-10-30T09:19:19.183Z,74.22
2022-10-30T09:20:18.927Z,74.03
2022-10-30T09:21:18.932Z,74.13
2022-10-30T09:22:18.925Z,74.13
2022-10-30T09:23:18.922Z,74.41
2022-10-30T09:24:18.921Z,74.41
2022-10-30T09:25:18.931Z,74.22
2022-10-30T09:26:20.817Z,74.03
2022-10-30T09:27:18.925Z,74.03
2022-10-30T09:28:18.919Z,74.03
2022-10-30T09:29:18.938Z,73.84
2022-10-30T09:30:18.921Z,73.94
2022-10-30T09:31:18.923Z,73.74
2022-10-30T09:32:18.913Z,73.84
2022-10-30T09:33:18.910Z,73.94
2022-10-30T09:34:18.939Z,73.74
2022-10-30T09:35:18.901Z,73.65
2022-10-30T09:36:22.067Z,73.74
2022-10-30T09:37:18.893Z,73.74
2022-10-30T09:38:18.900Z,73.74
2022-10-30T09:39:18.901Z,73.74
2022-10-30T09:40:18.902Z,73.94
2022-10-30T09:41:18.896Z,73.65
2022-10-30T09:42:18.890Z,73.46
2022-10-30T09:43:18.902Z,73.36
2022-10-30T09:44:18.893Z,73.65
2022-10-30T09:45:34.226Z,73.65
2022-10-30T09:46:18.885Z,73.46
2022-10-30T09:47:23.203Z,73.74
2022-10-30T09:48:18.886Z,73.74
2022-10-30T09:49:18.887Z,73.55
2022-10-30T09:50:18.903Z,73.74
2022-10-30T09:51:18.874Z,73.74
2022-10-30T09:52:18.870Z,74.03
2022-10-30T09:53:18.877Z,73.84
2022-10-30T09:54:18.874Z,73.55
2022-10-30T09:55:18.880Z,73.55
2022-10-30T09:56:18.866Z,73.26
2022-10-30T09:57:18.867Z,73.16
2022-10-30T09:58:18.867Z,73.26
2022-10-30T09:59:18.867Z,73.16
2022-10-30T10:00:18.864Z,73.46
2022-10-30T10:01:19.013Z,73.07
2022-10-30T10:02:19.107Z,73.46
2022-10-30T10:03:18.850Z,73.26
2022-10-30T10:04:22.265Z,72.97
2022-10-30T10:05:18.855Z,73.16
2022-10-30T10:06:18.870Z,73.36
2022-10-30T10:07:18.855Z,73.46
2022-10-30T10:08:18.862Z,72.78
2022-10-30T10:09:18.841Z,72.78
2022-10-30T10:10:18.889Z,72.78
2022-10-30T10:11:18.846Z,72.97
2022-10-30T10:12:18.856Z,72.55
2022-10-30T10:13:18.837Z,72.68
2022-10-30T10:14:18.848Z,72.68
2022-10-30T10:15:18.827Z,73.32
2022-10-30T10:16:18.832Z,73.22
2022-10-30T10:17:18.841Z,73.22
2022-10-30T10:18:18.907Z,73.22
2022-10-30T10:19:18.832Z,73.51
2022-10-30T10:20:18.831Z,73.42
2022-10-30T10:21:18.818Z,73.22
2022-10-30T10:22:18.820Z,73.32
2022-10-30T10:23:18.821Z,73.22
2022-10-30T10:24:19.997Z,73.22
2022-10-30T10:25:18.812Z,73.32
2022-10-30T10:26:18.813Z,73.32
2022-10-30T10:27:18.806Z,73.22
2022-10-30T10:28:18.803Z,73.61
2022-10-30T10:29:18.807Z,73.80
2022-10-30T10:30:18.813Z,73.61
2022-10-30T10:31:18.794Z,73.71
2022-10-30T10:32:18.807Z,73.80
2022-10-30T10:33:18.853Z,73.61
2022-10-30T10:34:18.795Z,73.71
2022-10-30T10:35:18.805Z,73.61
2022-10-30T10:36:18.856Z,73.28
2022-10-30T10:37:18.787Z,73.22
2022-10-30T10:38:18.788Z,73.13
2022-10-30T10:39:18.782Z,73.51
2022-10-30T10:40:18.777Z,73.42
2022-10-30T10:41:18.861Z,73.22
2022-10-30T10:42:18.771Z,73.22
2022-10-30T10:43:18.780Z,73.03
2022-10-30T10:44:18.789Z,73.03
2022-10-30T10:45:18.786Z,73.22
2022-10-30T10:46:18.773Z,73.13
2022-10-30T10:47:18.769Z,72.74
2022-10-30T10:48:18.780Z,72.65
2022-10-30T10:49:18.849Z,72.74
2022-10-30T10:50:18.760Z,72.84
2022-10-30T10:51:18.757Z,73.03
2022-10-30T10:52:18.749Z,72.55
2022-10-30T10:53:18.854Z,72.74
2022-10-30T10:54:18.756Z,72.65
2022-10-30T10:55:18.746Z,72.84
2022-10-30T10:56:18.808Z,72.84
2022-10-30T10:57:18.745Z,72.94
2022-10-30T10:58:18.812Z,72.36
2022-10-30T10:59:19.141Z,72.74
2022-10-30T11:00:18.735Z,72.65
2022-10-30T11:01:18.911Z,72.26
2022-10-30T11:02:18.865Z,72.74
2022-10-30T11:03:18.737Z,71.97
2022-10-30T11:04:18.730Z,71.97
2022-10-30T11:05:18.749Z,72.17
2022-10-30T11:06:18.723Z,72.07
2022-10-30T11:07:18.720Z,72.36
2022-10-30T11:08:18.715Z,72.55
2022-10-30T11:09:18.766Z,72.36
2022-10-30T11:10:18.718Z,72.17
2022-10-30T11:11:18.706Z,72.07
2022-10-30T11:12:18.712Z,71.88
2022-10-30T11:13:18.698Z,71.78
2022-10-30T11:14:18.703Z,71.97
2022-10-30T11:15:18.737Z,71.88
2022-10-30T11:16:18.717Z,72.17
2022-10-30T11:17:18.691Z,72.17
2022-10-30T11:18:18.691Z,72.07
2022-10-30T11:19:18.698Z,72.07
2022-10-30T11:20:18.708Z,71.59
2022-10-30T11:21:18.725Z,71.59
2022-10-30T11:22:18.694Z,71.69
2022-10-30T11:23:18.689Z,71.59
2022-10-30T11:24:18.688Z,71.59
2022-10-30T11:25:18.682Z,71.88
2022-10-30T11:26:18.681Z,71.69
2022-10-30T11:27:18.691Z,71.97
2022-10-30T11:28:18.675Z,71.69
2022-10-30T11:29:18.664Z,71.20
2022-10-30T11:30:18.670Z,71.97
2022-10-30T11:31:18.732Z,71.59
2022-10-30T11:32:18.672Z,71.40
2022-10-30T11:33:18.670Z,71.69
2022-10-30T11:34:18.715Z,71.88
2022-10-30T11:35:18.661Z,71.40
2022-10-30T11:36:18.654Z,71.49
2022-10-30T11:37:18.681Z,71.59
2022-10-30T11:38:18.650Z,71.59
2022-10-30T11:39:18.651Z,71.59
2022-10-30T11:40:18.658Z,71.59
2022-10-30T11:41:18.651Z,71.59
2022-10-30T11:42:18.668Z,71.49
2022-10-30T11:43:18.644Z,71.40
2022-10-30T11:44:18.653Z,71.49
2022-10-30T11:45:18.679Z,71.62
2022-10-30T11:46:18.640Z,71.62
2022-10-30T11:47:18.632Z,71.40
2022-10-30T11:48:19.015Z,71.59
2022-10-30T11:49:18.629Z,71.78
2022-10-30T11:50:18.775Z,71.59
2022-10-30T11:51:18.673Z,71.30
2022-10-30T11:52:18.622Z,71.43
2022-10-30T11:53:18.643Z,71.11
2022-10-30T11:54:18.619Z,71.43
2022-10-30T11:55:18.625Z,71.24
2022-10-30T11:56:18.632Z,71.34
2022-10-30T11:57:18.614Z,71.14
2022-10-30T11:58:18.610Z,70.95
2022-10-30T11:59:18.610Z,71.24
2022-10-30T12:00:18.705Z,71.43
2022-10-30T12:01:18.646Z,71.14
2022-10-30T12:02:18.717Z,70.86
2022-10-30T12:03:18.604Z,71.14
2022-10-30T12:04:18.602Z,71.04
2022-10-30T12:05:18.593Z,70.95
2022-10-30T12:06:18.605Z,70.86
2022-10-30T12:07:18.604Z,70.76
2022-10-30T12:08:18.661Z,71.04
2022-10-30T12:09:18.612Z,71.24
2022-10-30T12:10:18.587Z,71.14
2022-10-30T12:11:18.590Z,71.04
2022-10-30T12:12:18.586Z,70.76
2022-10-30T12:13:18.580Z,70.86
2022-10-30T12:14:18.580Z,70.76
2022-10-30T12:15:18.580Z,70.66
2022-10-30T12:16:18.576Z,70.56
2022-10-30T12:17:18.648Z,70.76
2022-10-30T12:18:18.640Z,70.76
2022-10-30T12:19:18.584Z,70.66
2022-10-30T12:20:18.581Z,70.86
2022-10-30T12:21:18.563Z,70.47
2022-10-30T12:22:18.614Z,70.47
2022-10-30T12:23:18.677Z,70.37
2022-10-30T12:24:18.558Z,70.56
2022-10-30T12:25:18.592Z,70.47
2022-10-30T12:26:18.554Z,70.66
2022-10-30T12:27:22.356Z,69.99
2022-10-30T12:28:18.616Z,70.86
2022-10-30T12:29:18.557Z,70.37
2022-10-30T12:30:18.556Z,70.18
2022-10-30T12:31:18.568Z,70.28
2022-10-30T12:32:18.545Z,70.47
2022-10-30T12:33:18.548Z,70.37
2022-10-30T12:34:18.544Z,70.47
2022-10-30T12:35:18.553Z,70.09
2022-10-30T12:36:18.547Z,69.99
2022-10-30T12:37:18.546Z,69.89
2022-10-30T12:38:18.534Z,69.89
2022-10-30T12:39:18.541Z,69.79
2022-10-30T12:40:18.537Z,69.89
2022-10-30T12:41:18.556Z,69.89
2022-10-30T12:42:18.530Z,69.89
2022-10-30T12:43:18.548Z,69.89
2022-10-30T12:44:18.523Z,70.18
2022-10-30T12:45:18.530Z,70.09
2022-10-30T12:46:18.523Z,70.18
2022-10-30T12:47:18.527Z,69.79
2022-10-30T12:48:18.533Z,69.99
2022-10-30T12:49:18.522Z,70.09
2022-10-30T12:50:18.512Z,70.18
2022-10-30T12:51:21.360Z,69.99
2022-10-30T12:52:18.510Z,69.99
2022-10-30T12:53:18.518Z,70.18
2022-10-30T12:54:18.517Z,70.18